createdAt,value
2022-11-22T00:00:51.780Z,3.71
2022-11-22T00:03:36.826Z,3.70
2022-11-22T00:06:22.026Z,3.65
2022-11-22T00:09:07.144Z,3.66
2022-11-22T00:11:52.358Z,3.65
2022-11-22T00:14:37.731Z,3.65
2022-11-22T00:17:23.317Z,3.73
2022-11-22T00:20:09.356Z,3.73
2022-11-22T00:22:56.460Z,3.79
2022-11-22T00:25:42.104Z,3.75
2022-11-22T00:28:27.342Z,3.78
2022-11-22T00:31:12.654Z,3.78
2022-11-22T00:33:58.071Z,3.78
2022-11-22T00:36:44.528Z,3.71
2022-11-22T00:39:29.875Z,3.66
2022-11-22T00:42:15.198Z,3.68
2022-11-22T00:45:00.361Z,3.67
2022-11-22T00:47:45.300Z,3.64
2022-11-22T00:50:30.308Z,3.72
2022-11-22T00:53:15.779Z,3.70
2022-11-22T00:56:00.604Z,3.68
2022-11-22T00:58:45.562Z,3.72
2022-11-22T01:01:30.944Z,3.67
2022-11-22T01:04:16.121Z,3.74
2022-11-22T01:07:01.236Z,3.76
2022-11-22T01:09:46.487Z,3.73
2022-11-22T01:12:31.599Z,3.73
2022-11-22T01:15:16.960Z,3.75
2022-11-22T01:18:02.337Z,3.79
2022-11-22T01:20:47.753Z,3.78
2022-11-22T01:23:34.306Z,3.77
2022-11-22T01:26:19.183Z,3.78
2022-11-22T01:29:04.681Z,3.78
2022-11-22T01:31:49.831Z,3.81
2022-11-22T01:34:34.766Z,3.80
2022-11-22T01:37:19.732Z,3.73
2022-11-22T01:40:05.204Z,3.78
2022-11-22T01:42:52.803Z,3.76
2022-11-22T01:45:42.257Z,3.86
2022-11-22T01:48:47.824Z,3.85
2022-11-22T01:51:39.354Z,3.84
2022-11-22T01:54:29.854Z,3.81
2022-11-22T01:57:20.393Z,3.87
2022-11-22T02:00:09.379Z,3.85
2022-11-22T02:03:00.204Z,3.87
2022-11-22T02:05:46.788Z,3.92
2022-11-22T02:08:54.936Z,3.89
2022-11-22T02:11:46.076Z,3.82
2022-11-22T02:14:31.937Z,3.84
2022-11-22T02:17:17.304Z,3.87
2022-11-22T02:20:03.719Z,3.88
2022-11-22T02:23:07.306Z,3.89
2022-11-22T02:26:02.210Z,4.01
2022-11-22T02:28:49.012Z,4.02
2022-11-22T02:31:39.193Z,4.08
2022-11-22T02:34:24.060Z,4.09
2022-11-22T02:37:11.084Z,4.18
2022-11-22T02:40:03.587Z,4.16
2022-11-22T02:42:52.903Z,4.22
2022-11-22T02:45:37.828Z,4.18
2022-11-22T02:48:22.954Z,4.13
2022-11-22T02:51:08.151Z,4.21
2022-11-22T02:53:53.260Z,4.22
2022-11-22T02:56:38.393Z,4.21
2022-11-22T02:59:24.128Z,4.27
2022-11-22T03:02:09.255Z,4.30
2022-11-22T03:04:54.463Z,4.28
2022-11-22T03:07:39.434Z,4.30
2022-11-22T03:10:24.844Z,4.35
2022-11-22T03:13:09.900Z,4.27
2022-11-22T03:15:54.870Z,4.23
2022-11-22T03:18:40.141Z,4.24
2022-11-22T03:21:25.423Z,4.30
2022-11-22T03:24:11.140Z,4.25
2022-11-22T03:26:56.005Z,4.35
2022-11-22T03:29:40.894Z,4.28
2022-11-22T03:32:26.366Z,4.33
2022-11-22T03:35:11.354Z,4.35
2022-11-22T03:37:57.331Z,4.32
2022-11-22T03:40:46.353Z,4.30
2022-11-22T03:43:31.411Z,4.30
2022-11-22T03:46:18.555Z,4.32
2022-11-22T03:49:03.752Z,4.30
2022-11-22T03:51:48.911Z,4.31
2022-11-22T03:54:34.292Z,4.31
2022-11-22T03:57:19.394Z,4.39
2022-11-22T04:00:05.953Z,4.35
2022-11-22T04:02:50.977Z,4.32
2022-11-22T04:05:36.305Z,4.35
2022-11-22T04:08:21.360Z,4.33
2022-11-22T04:11:06.277Z,4.37
2022-11-22T04:13:51.578Z,4.38
2022-11-22T04:16:36.664Z,4.41
2022-11-22T04:19:21.908Z,4.37
2022-11-22T04:22:06.950Z,4.34
2022-11-22T04:24:52.292Z,4.29
2022-11-22T04:27:37.134Z,4.40
2022-11-22T04:30:22.369Z,4.36
2022-11-22T04:33:07.898Z,4.31
2022-11-22T04:35:53.918Z,4.39
2022-11-22T04:41:12.076Z,4.37
2022-11-22T04:43:56.937Z,4.43
2022-11-22T04:46:41.887Z,4.41
2022-11-22T04:49:27.634Z,4.44
2022-11-22T04:52:13.364Z,4.40
2022-11-22T04:54:58.635Z,4.38
2022-11-22T04:57:43.454Z,4.36
2022-11-22T05:00:29.599Z,4.39
2022-11-22T05:03:15.163Z,4.42
2022-11-22T05:06:05.318Z,4.39
2022-11-22T05:08:50.264Z,4.38
2022-11-22T05:11:35.711Z,4.39
2022-11-22T05:14:20.580Z,4.41
2022-11-22T05:17:05.356Z,4.42
2022-11-22T05:19:50.255Z,4.44
2022-11-22T05:22:35.631Z,4.52
2022-11-22T05:25:25.326Z,4.53
2022-11-22T05:28:11.184Z,4.62
2022-11-22T05:30:56.835Z,4.66
2022-11-22T05:33:44.365Z,4.79
2022-11-22T05:36:33.572Z,4.80
2022-11-22T05:39:18.628Z,4.85
2022-11-22T05:42:04.030Z,4.85
2022-11-22T05:44:49.454Z,4.96
2022-11-22T05:47:36.016Z,4.85
2022-11-22T05:50:21.579Z,4.86
2022-11-22T05:53:06.561Z,4.99
2022-11-22T05:55:51.400Z,4.96
2022-11-22T05:58:37.302Z,5.01
2022-11-22T06:01:24.117Z,5.02
2022-11-22T06:04:09.274Z,5.00
2022-11-22T06:06:54.192Z,4.99
2022-11-22T06:09:39.760Z,5.01
2022-11-22T06:12:24.670Z,4.95
2022-11-22T06:15:10.313Z,5.03
2022-11-22T06:17:55.925Z,4.96
2022-11-22T06:20:40.982Z,5.02
2022-11-22T06:23:26.493Z,4.99
2022-11-22T06:26:13.825Z,4.81
2022-11-22T06:29:00.131Z,4.83
2022-11-22T06:31:45.375Z,4.77
2022-11-22T06:34:30.780Z,4.66
2022-11-22T06:37:15.903Z,4.65
2022-11-22T06:40:00.854Z,4.61
2022-11-22T06:42:46.102Z,4.48
2022-11-22T06:45:30.973Z,4.44
2022-11-22T06:48:16.341Z,4.41
2022-11-22T06:51:03.691Z,4.35
2022-11-22T06:53:49.944Z,4.30
2022-11-22T06:56:39.548Z,4.24
2022-11-22T06:59:24.881Z,4.26
2022-11-22T07:02:11.593Z,4.25
2022-11-22T07:05:23.930Z,4.18
2022-11-22T07:08:08.008Z,4.12
2022-11-22T07:11:05.420Z,4.15
2022-11-22T07:13:51.524Z,4.13
2022-11-22T07:16:38.366Z,4.20
2022-11-22T07:19:23.334Z,4.18
2022-11-22T07:22:11.592Z,4.17
2022-11-22T07:24:58.234Z,4.17
2022-11-22T07:27:43.154Z,4.15
2022-11-22T07:30:28.082Z,4.21
2022-11-22T07:33:13.219Z,4.20
2022-11-22T07:36:21.336Z,4.20
2022-11-22T07:39:06.313Z,4.17
2022-11-22T07:41:51.670Z,4.16
2022-11-22T07:44:36.971Z,4.20
2022-11-22T07:47:23.199Z,4.25
2022-11-22T07:50:09.056Z,4.30
2022-11-22T07:52:58.664Z,4.38
2022-11-22T07:55:43.892Z,4.41
2022-11-22T07:58:29.039Z,4.39
2022-11-22T08:01:16.309Z,4.46
2022-11-22T08:04:02.026Z,4.56
2022-11-22T08:06:47.131Z,4.46
2022-11-22T08:09:32.510Z,4.60
2022-11-22T08:12:17.785Z,4.68
2022-11-22T08:15:02.805Z,4.82
2022-11-22T08:17:48.091Z,4.90
2022-11-22T08:20:33.490Z,4.85
2022-11-22T08:23:18.843Z,4.84
2022-11-22T08:26:06.311Z,4.92
2022-11-22T08:28:51.564Z,4.98
2022-11-22T08:31:40.231Z,5.02
2022-11-22T08:34:28.375Z,5.10
2022-11-22T08:37:14.185Z,5.15
2022-11-22T08:39:59.808Z,5.23
2022-11-22T08:42:44.979Z,5.35
2022-11-22T08:45:29.729Z,5.46
2022-11-22T08:48:20.626Z,5.55
2022-11-22T08:51:10.122Z,5.63
2022-11-22T08:53:55.482Z,5.65
2022-11-22T08:56:41.252Z,5.77
2022-11-22T08:59:26.247Z,5.84
2022-11-22T09:02:11.583Z,5.89
2022-11-22T09:04:56.611Z,5.91
2022-11-22T09:10:46.584Z,6.05
2022-11-22T09:13:31.862Z,6.14
2022-11-22T09:16:20.470Z,6.18
2022-11-22T09:19:05.636Z,6.29
2022-11-22T09:21:50.771Z,6.42
2022-11-22T09:24:36.148Z,6.50
2022-11-22T09:27:21.684Z,6.56
2022-11-22T09:30:07.497Z,6.63
2022-11-22T09:32:52.748Z,6.66
2022-11-22T09:35:37.721Z,6.66
2022-11-22T09:38:22.560Z,6.73
2022-11-22T09:41:17.143Z,6.78
2022-11-22T09:45:11.390Z,6.79
2022-11-22T09:48:19.568Z,6.93
2022-11-22T09:51:17.257Z,7.15
2022-11-22T09:54:10.660Z,7.22
2022-11-22T09:57:01.580Z,7.29
2022-11-22T09:59:53.992Z,7.35
2022-11-22T10:03:00.023Z,7.40
2022-11-22T10:05:59.918Z,7.41
2022-11-22T10:09:05.104Z,7.27
2022-11-22T10:12:09.281Z,7.34
2022-11-22T10:15:07.803Z,7.36
2022-11-22T10:17:56.383Z,7.41
2022-11-22T10:20:48.644Z,7.65
2022-11-22T10:23:34.411Z,7.82
2022-11-22T10:26:24.962Z,7.83
2022-11-22T10:29:24.558Z,7.90
2022-11-22T10:32:37.952Z,8.03
2022-11-22T10:35:39.573Z,8.21
2022-11-22T10:38:34.126Z,8.09
2022-11-22T10:41:52.026Z,8.24
2022-11-22T10:44:58.308Z,8.31
2022-11-22T10:47:55.816Z,8.19
2022-11-22T10:50:54.759Z,8.39
2022-11-22T10:54:18.040Z,8.30
2022-11-22T10:57:21.858Z,8.20
2022-11-22T11:00:22.395Z,8.26
2022-11-22T11:03:20.722Z,8.32
2022-11-22T11:06:49.912Z,8.36
2022-11-22T11:13:06.510Z,8.60
2022-11-22T11:15:56.356Z,8.53
2022-11-22T11:18:45.452Z,8.47
2022-11-22T11:21:30.549Z,8.37
2022-11-22T11:24:16.800Z,8.37
2022-11-22T11:27:02.287Z,8.37
2022-11-22T11:30:04.461Z,8.41
2022-11-22T11:32:55.244Z,8.34
2022-11-22T11:35:44.727Z,8.33
2022-11-22T11:38:34.562Z,8.43
2022-11-22T11:41:36.142Z,8.61
2022-11-22T11:44:28.785Z,8.63
2022-11-22T11:47:32.773Z,8.59
2022-11-22T11:50:24.277Z,8.60
2022-11-22T11:53:22.789Z,8.66
2022-11-22T11:56:45.156Z,8.70
2022-11-22T11:59:36.626Z,8.69
2022-11-22T12:02:34.242Z,8.81
2022-11-22T12:05:21.309Z,8.68
2022-11-22T12:08:29.844Z,8.70
2022-11-22T12:11:23.193Z,8.67
2022-11-22T12:14:20.922Z,8.70
2022-11-22T12:17:18.425Z,8.53
2022-11-22T12:20:09.580Z,8.56
2022-11-22T12:23:16.861Z,8.65
2022-11-22T12:26:02.431Z,8.71
2022-11-22T12:28:48.797Z,8.87
2022-11-22T12:31:45.875Z,8.94
2022-11-22T12:34:43.547Z,8.89
2022-11-22T12:37:42.879Z,9.01
2022-11-22T12:40:42.599Z,9.09
2022-11-22T12:43:56.526Z,9.08
2022-11-22T12:46:53.963Z,9.05
2022-11-22T12:49:47.312Z,8.46
2022-11-22T12:52:32.545Z,8.30
2022-11-22T12:55:24.555Z,8.22
2022-11-22T12:58:33.181Z,8.25
2022-11-22T13:01:37.106Z,8.20
2022-11-22T13:04:45.863Z,8.07
2022-11-22T13:08:05.736Z,7.99
2022-11-22T13:11:16.380Z,7.98
2022-11-22T13:14:10.839Z,8.02
2022-11-22T13:16:56.422Z,8.01
2022-11-22T13:19:47.232Z,8.03
2022-11-22T13:22:35.410Z,8.23
2022-11-22T13:25:39.375Z,8.44
2022-11-22T13:28:29.751Z,8.95
2022-11-22T13:31:18.326Z,9.05
2022-11-22T13:34:26.343Z,9.08
2022-11-22T13:37:16.563Z,8.85
2022-11-22T13:40:17.455Z,8.14
2022-11-22T13:43:21.393Z,7.83
2022-11-22T13:46:53.071Z,7.83
2022-11-22T13:49:48.888Z,7.78
2022-11-22T13:52:52.226Z,7.70
2022-11-22T13:55:42.315Z,7.72
2022-11-22T13:58:28.191Z,7.66
2022-11-22T14:01:31.553Z,7.71
2022-11-22T14:04:16.868Z,7.69
2022-11-22T14:07:21.619Z,7.70
2022-11-22T14:10:25.464Z,7.67
2022-11-22T14:13:13.871Z,7.67
2022-11-22T14:16:14.339Z,7.68
2022-11-22T14:19:28.152Z,7.84
2022-11-22T14:22:18.682Z,7.74
2022-11-22T14:25:20.052Z,7.73
2022-11-22T14:28:26.041Z,7.72
2022-11-22T14:31:23.814Z,7.62
2022-11-22T14:34:29.026Z,7.63
2022-11-22T14:37:14.342Z,7.48
2022-11-22T14:40:08.898Z,7.49
2022-11-22T14:42:58.435Z,7.44
2022-11-22T14:45:55.353Z,7.43
2022-11-22T14:48:52.991Z,7.42
2022-11-22T14:51:39.269Z,7.37
2022-11-22T14:54:45.424Z,7.41
2022-11-22T14:57:34.018Z,7.42
2022-11-22T15:00:23.383Z,7.38
2022-11-22T15:03:46.139Z,7.33
2022-11-22T15:09:19.461Z,7.35
2022-11-22T15:09:59.502Z,7.33
2022-11-22T15:12:54.019Z,7.35
2022-11-22T15:57:25.805Z,7.28
2022-11-22T16:00:21.979Z,7.22
2022-11-22T16:03:25.657Z,7.16
2022-11-22T16:06:15.712Z,7.20
2022-11-22T16:09:03.996Z,7.14
2022-11-22T16:11:53.720Z,7.08
2022-11-22T16:14:43.600Z,7.00
2022-11-22T16:17:30.125Z,6.95
2022-11-22T16:20:24.295Z,6.88
2022-11-22T16:23:09.224Z,6.89
2022-11-22T16:26:00.374Z,6.86
2022-11-22T16:28:49.960Z,6.82
2022-11-22T16:31:40.113Z,6.87
2022-11-22T16:34:25.310Z,6.91
2022-11-22T16:37:34.650Z,6.98
2022-11-22T16:40:23.212Z,6.90
2022-11-22T16:43:19.545Z,6.96
2022-11-22T16:46:05.016Z,7.01
2022-11-22T16:48:50.678Z,6.98
2022-11-22T16:51:35.791Z,6.93
2022-11-22T16:54:22.381Z,6.99
2022-11-22T16:57:12.610Z,6.87
2022-11-22T16:59:58.176Z,6.92
2022-11-22T17:02:43.787Z,6.74
2022-11-22T17:05:28.720Z,6.74
2022-11-22T17:08:16.507Z,6.62
2022-11-22T17:11:01.679Z,6.63
2022-11-22T17:13:47.878Z,6.60
2022-11-22T17:16:34.608Z,6.61
2022-11-22T17:19:45.601Z,6.57
2022-11-22T17:22:24.594Z,6.59
2022-11-22T17:25:12.134Z,6.67
2022-11-22T17:27:57.066Z,6.73
2022-11-22T17:30:41.984Z,6.68
2022-11-22T17:33:27.511Z,6.61
2022-11-22T17:36:27.499Z,6.70
2022-11-22T17:39:13.898Z,6.77
2022-11-22T17:41:59.154Z,6.72
2022-11-22T17:44:44.227Z,6.71
2022-11-22T17:47:29.676Z,6.63
2022-11-22T17:50:14.921Z,6.60
2022-11-22T17:52:59.896Z,6.62
2022-11-22T17:56:11.651Z,6.66
2022-11-22T17:58:50.114Z,6.50
2022-11-22T18:01:35.466Z,6.55
2022-11-22T18:04:20.424Z,6.49
2022-11-22T18:07:05.946Z,6.57
2022-11-22T18:09:51.291Z,6.51
2022-11-22T18:12:42.285Z,6.44
2022-11-22T18:15:32.193Z,6.49
2022-11-22T18:18:40.410Z,6.49
2022-11-22T18:21:23.447Z,6.48
2022-11-22T18:24:08.699Z,6.49
2022-11-22T18:26:54.006Z,6.53
2022-11-22T18:29:42.500Z,6.51
2022-11-22T18:32:38.467Z,6.56
2022-11-22T18:35:23.389Z,6.57
2022-11-22T18:38:08.150Z,6.54
2022-11-22T18:40:53.566Z,6.54
2022-11-22T18:43:38.373Z,6.51
2022-11-22T18:46:23.360Z,6.53
2022-11-22T18:49:08.463Z,6.51
2022-11-22T18:51:53.646Z,6.45
2022-11-22T18:54:38.497Z,6.42
2022-11-22T18:57:23.448Z,6.38
2022-11-22T19:00:09.267Z,6.36
2022-11-22T19:02:54.293Z,6.34
2022-11-22T19:05:39.981Z,6.32
2022-11-22T19:08:25.139Z,6.28
2022-11-22T19:11:10.617Z,6.28
2022-11-22T19:13:55.507Z,6.28
2022-11-22T19:16:40.554Z,6.27
2022-11-22T19:19:25.420Z,6.30
2022-11-22T19:22:10.299Z,6.33
2022-11-22T19:24:55.268Z,6.33
2022-11-22T19:27:39.965Z,6.30
2022-11-22T19:30:25.028Z,6.28
2022-11-22T19:33:10.177Z,6.26
2022-11-22T19:36:04.339Z,6.20
2022-11-22T19:38:49.807Z,6.21
2022-11-22T19:41:34.686Z,6.16
2022-11-22T19:44:19.552Z,6.15
2022-11-22T19:47:04.476Z,6.10
2022-11-22T19:49:49.670Z,6.08
2022-11-22T19:52:34.787Z,6.08
2022-11-22T19:55:19.682Z,6.07
2022-11-22T19:58:04.956Z,6.11
2022-11-22T20:00:49.920Z,6.11
2022-11-22T20:03:36.433Z,6.11
2022-11-22T20:06:21.611Z,6.10
2022-11-22T20:09:11.635Z,6.05
2022-11-22T20:11:56.515Z,6.05
2022-11-22T20:14:41.580Z,6.01
2022-11-22T20:17:26.446Z,6.01
2022-11-22T20:20:11.470Z,6.04
2022-11-22T20:22:56.664Z,6.08
2022-11-22T20:25:41.586Z,6.04
2022-11-22T20:28:26.682Z,6.05
2022-11-22T20:31:19.563Z,6.06
2022-11-22T20:34:04.572Z,6.08
2022-11-22T20:36:49.648Z,6.12
2022-11-22T20:39:34.486Z,6.15
2022-11-22T20:42:34.126Z,6.19
2022-11-22T20:45:19.844Z,6.24
2022-11-22T20:48:04.966Z,6.31
2022-11-22T20:50:50.541Z,6.29
2022-11-22T20:53:36.061Z,6.31
2022-11-22T20:56:21.679Z,6.33
2022-11-22T20:59:06.437Z,6.38
2022-11-22T21:01:51.518Z,6.37
2022-11-22T21:04:36.719Z,6.38
2022-11-22T21:07:21.799Z,6.43
2022-11-22T21:10:06.806Z,6.46
2022-11-22T21:12:52.764Z,6.44
2022-11-22T21:15:38.050Z,6.47
2022-11-22T21:18:25.571Z,6.47
2022-11-22T21:21:12.930Z,6.56
2022-11-22T21:24:01.338Z,6.59
2022-11-22T21:26:46.750Z,6.62
2022-11-22T21:29:31.994Z,6.65
2022-11-22T21:32:16.782Z,6.71
2022-11-22T21:35:01.583Z,6.67
2022-11-22T21:37:46.654Z,6.65
2022-11-22T21:40:31.494Z,6.66
2022-11-22T21:43:16.401Z,6.68
2022-11-22T21:46:01.380Z,6.66
2022-11-22T21:48:48.350Z,6.66
2022-11-22T21:51:33.335Z,6.65
2022-11-22T21:54:18.290Z,6.66
2022-11-22T21:57:03.415Z,6.66
2022-11-22T21:59:48.439Z,6.64
2022-11-22T22:02:33.544Z,6.66
2022-11-22T22:05:18.612Z,6.70
2022-11-22T22:08:03.783Z,6.70
2022-11-22T22:10:50.008Z,6.68
2022-11-22T22:13:35.411Z,6.69
2022-11-22T22:16:21.124Z,6.63
2022-11-22T22:19:09.452Z,6.60
2022-11-22T22:21:54.506Z,6.56
2022-11-22T22:24:39.733Z,6.51
2022-11-22T22:27:25.310Z,6.46
2022-11-22T22:30:10.985Z,6.46
2022-11-22T22:32:56.219Z,6.39
2022-11-22T22:35:41.737Z,6.42
2022-11-22T22:38:27.219Z,6.43
2022-11-22T22:41:13.566Z,6.44
2022-11-22T22:43:58.738Z,6.47
2022-11-22T22:46:43.830Z,6.48
2022-11-22T22:49:29.763Z,6.47
2022-11-22T22:52:15.531Z,6.48
2022-11-22T22:55:00.733Z,6.49
2022-11-22T22:57:45.574Z,6.50
2022-11-22T23:00:30.612Z,6.51
2022-11-22T23:03:15.563Z,6.50
2022-11-22T23:06:05.150Z,6.51
2022-11-22T23:08:52.009Z,6.51
2022-11-22T23:11:37.304Z,6.51
2022-11-22T23:14:27.270Z,6.51
2022-11-22T23:17:12.204Z,6.54
2022-11-22T23:19:57.503Z,6.53
2022-11-22T23:22:42.541Z,6.52
2022-11-22T23:25:27.320Z,6.50
2022-11-22T23:28:12.345Z,6.49
2022-11-22T23:31:03.868Z,6.45
2022-11-22T23:33:49.147Z,6.46
2022-11-22T23:36:40.207Z,6.44
2022-11-22T23:39:26.063Z,6.45
2022-11-22T23:42:11.175Z,6.45
2022-11-22T23:44:55.928Z,6.44
2022-11-22T23:47:40.836Z,6.46
2022-11-22T23:50:25.647Z,6.45
2022-11-22T23:53:10.607Z,6.47
2022-11-22T23:55:55.410Z,6.50
2022-11-22T23:58:41.016Z,6.47
